Time;durP1;ratioP1;P1;durP2;ratioP2;P2;SDS_P1;SDS_P2;PMS_P1;PMS_P2;Temp;Humidity;BMP_temperature;BMP_pressure;BME280_temperature;BME280_humidity;BME280_pressure;Samples;Min_cycle;Max_cycle;Signal;HPM_P1;HPM_P2
2023/07/18 00:00:29;;;;;;;4.30;4.20;;;;;;;-145.94;68.50;77157.22;5114161;28;20193;-68
2023/07/18 00:02:54;;;;;;;5.43;5.13;;;;;;;-145.94;68.82;77151.09;5113282;28;20223;-68
2023/07/18 00:05:21;;;;;;;4.03;3.90;;;;;;;-145.94;68.55;77153.13;5113570;28;20267;-68
2023/07/18 00:07:48;;;;;;;4.07;3.97;;;;;;;-145.94;68.49;77155.16;5113550;28;20177;-68
2023/07/18 00:10:19;;;;;;;4.07;3.83;;;;;;;-145.94;68.66;77155.16;5114054;28;20241;-68
2023/07/18 00:12:45;;;;;;;4.20;4.10;;;;;;;-145.94;68.45;77165.38;5113740;28;20219;-68
2023/07/18 00:15:13;;;;;;;4.30;4.20;;;;;;;-145.94;68.34;77167.41;5114001;28;20187;-68
2023/07/18 00:17:40;;;;;;;3.93;3.73;;;;;;;-145.94;68.55;77167.41;5117419;28;20220;-68
2023/07/18 00:20:09;;;;;;;4.37;4.20;;;;;;;-145.94;68.61;77161.28;5117795;28;20193;-68
2023/07/18 00:22:36;;;;;;;4.57;4.27;;;;;;;-145.94;68.69;77157.22;5117957;28;20205;-66
2023/07/18 00:25:03;;;;;;;4.43;4.23;;;;;;;-145.94;68.81;77161.28;5117655;28;20190;-66
2023/07/18 00:27:30;;;;;;;4.33;4.23;;;;;;;-145.94;68.78;77157.22;5118171;28;20569;-66
2023/07/18 00:29:57;;;;;;;5.17;4.87;;;;;;;-145.94;68.69;77159.25;5099008;28;20569;-66
2023/07/18 00:32:23;;;;;;;4.23;4.03;;;;;;;-145.94;68.75;77161.28;5117224;28;20205;-66
2023/07/18 00:34:50;;;;;;;4.33;4.13;;;;;;;-145.94;68.71;77165.38;5117162;28;20185;-66
2023/07/18 00:37:17;;;;;;;2.97;2.97;;;;;;;-145.94;68.74;77177.59;5115798;28;20205;-66
2023/07/18 00:39:43;;;;;;;4.23;4.03;;;;;;;-145.94;68.41;77187.78;5117125;28;20181;-66
2023/07/18 00:42:10;;;;;;;5.20;4.40;;;;;;;-145.94;68.61;77181.69;5098702;28;20260;-66
2023/07/18 00:44:37;;;;;;;4.83;4.67;;;;;;;-145.94;68.63;77187.78;5117014;28;20255;-66
2023/07/18 00:47:04;;;;;;;4.97;4.63;;;;;;;-145.94;68.36;77189.84;5116991;28;20173;-66
2023/07/18 00:49:31;;;;;;;4.40;4.30;;;;;;;-145.94;68.72;77206.16;5098661;28;20189;-66
2023/07/18 00:51:58;;;;;;;4.63;4.43;;;;;;;-145.94;68.72;77204.13;5116802;28;20224;-66
2023/07/18 00:54:24;;;;;;;4.70;4.60;;;;;;;-145.94;68.50;77202.06;5117108;28;20189;-66
2023/07/18 00:56:51;;;;;;;4.93;4.73;;;;;;;-145.94;68.44;77204.13;5116987;28;20197;-66
2023/07/18 00:59:18;;;;;;;4.83;4.53;;;;;;;-145.94;68.58;77210.22;5098388;28;20196;-66
2023/07/18 01:01:46;;;;;;;4.57;4.37;;;;;;;-145.94;68.78;77212.28;5116610;28;20683;-66
2023/07/18 01:04:13;;;;;;;3.70;3.60;;;;;;;-145.94;68.80;77210.22;5116650;28;20219;-66
2023/07/18 01:06:40;;;;;;;4.30;4.20;;;;;;;-145.94;69.08;77210.22;5117132;28;20188;-66
2023/07/18 01:09:08;;;;;;;5.10;4.70;;;;;;;-145.94;69.01;77216.34;5117094;28;20185;-66
2023/07/18 01:11:34;;;;;;;4.90;4.50;;;;;;;-145.94;68.71;77222.47;5116731;28;20605;-66
2023/07/18 01:14:01;;;;;;;4.57;4.47;;;;;;;-145.94;69.09;77216.34;5116477;28;20220;-66
2023/07/18 01:16:27;;;;;;;5.43;4.73;;;;;;;-145.94;69.21;77220.44;5116595;28;20264;-66
2023/07/18 01:18:53;;;;;;;4.23;4.07;;;;;;;-145.94;69.21;77220.44;5116911;28;20254;-66
2023/07/18 01:21:21;;;;;;;4.33;4.10;;;;;;;-145.94;69.12;77230.63;5116799;28;20669;-66
2023/07/18 01:23:48;;;;;;;4.23;3.93;;;;;;;-145.94;69.36;77230.63;5098010;28;20745;-66
2023/07/18 01:26:15;;;;;;;4.40;4.27;;;;;;;-145.94;69.02;77230.63;5097964;28;20197;-66
2023/07/18 01:28:41;;;;;;;5.10;4.47;;;;;;;-145.94;69.30;77230.63;5097151;28;20189;-66
2023/07/18 01:31:08;;;;;;;8.27;4.97;;;;;;;-145.94;69.30;77230.63;5097800;28;20204;-66
2023/07/18 01:33:34;;;;;;;3.60;3.60;;;;;;;-145.94;69.59;77228.59;5116389;28;20192;-66
2023/07/18 01:36:01;;;;;;;4.10;4.00;;;;;;;-145.94;69.59;77224.50;5116122;28;20204;-66
2023/07/18 01:38:31;;;;;;;5.13;4.73;;;;;;;-145.94;69.66;77222.47;5116207;28;20205;-66
2023/07/18 01:41:01;;;;;;;4.37;4.17;;;;;;;-145.94;69.51;77220.44;5116524;28;20201;-66
2023/07/18 01:43:27;;;;;;;4.47;4.37;;;;;;;-145.94;69.46;77228.59;5116378;28;20213;-66
2023/07/18 01:45:58;;;;;;;4.53;4.23;;;;;;;-145.94;69.30;77232.66;5115829;28;20189;-66
2023/07/18 01:48:27;;;;;;;3.80;3.70;;;;;;;-145.94;69.68;77228.59;5115876;28;20658;-66
2023/07/18 01:50:54;;;;;;;5.23;4.93;;;;;;;-145.94;69.63;77234.69;5115754;28;20185;-66
2023/07/18 01:53:22;;;;;;;3.97;3.97;;;;;;;-145.94;69.54;77242.88;5115934;28;20296;-66
2023/07/18 01:55:49;;;;;;;3.03;2.93;;;;;;;-145.94;69.20;77248.97;5115699;28;20185;-66
2023/07/18 01:58:16;;;;;;;4.17;4.07;;;;;;;-145.94;69.23;77257.13;5097267;28;20217;-66
2023/07/18 02:00:42;;;;;;;3.83;3.33;;;;;;;-145.94;69.60;77255.09;5097305;28;20667;-66
2023/07/18 02:03:08;;;;;;;3.60;3.60;;;;;;;-145.94;69.19;77267.34;5097218;28;20695;-66
2023/07/18 02:05:35;;;;;;;4.13;3.93;;;;;;;-145.94;69.33;77275.50;5115720;28;20181;-66
2023/07/18 02:08:02;;;;;;;3.43;3.43;;;;;;;-145.94;69.57;77279.56;5115438;28;20697;-66
2023/07/18 02:10:28;;;;;;;4.07;3.83;;;;;;;-145.94;69.73;77279.56;5097087;28;20193;-66
2023/07/18 02:12:57;;;;;;;10.03;4.17;;;;;;;-145.94;69.44;77277.53;5097020;28;20270;-66
2023/07/18 02:15:24;;;;;;;3.53;3.50;;;;;;;-145.94;69.65;77279.56;5097034;28;20192;-66
2023/07/18 02:17:51;;;;;;;4.43;4.23;;;;;;;-145.94;69.89;77277.53;5096827;28;20262;-66
2023/07/18 02:20:18;;;;;;;3.87;3.87;;;;;;;-145.94;69.39;77279.56;5115152;28;20189;-66
2023/07/18 02:22:45;;;;;;;5.87;5.23;;;;;;;-145.94;69.65;77265.28;5080026;28;20690;-66
2023/07/18 02:25:12;;;;;;;4.30;3.83;;;;;;;-145.94;69.61;77267.34;5096862;28;20193;-68
2023/07/18 02:27:40;;;;;;;4.27;4.17;;;;;;;-145.94;69.61;77271.41;5115037;28;20189;-68
2023/07/18 02:30:11;;;;;;;3.53;3.40;;;;;;;-145.94;69.77;77289.78;5114780;28;20189;-68
2023/07/18 02:32:39;;;;;;;3.77;3.67;;;;;;;-145.94;69.74;77293.84;5097209;28;20566;-68
2023/07/18 02:35:10;;;;;;;4.50;4.40;;;;;;;-145.94;69.39;77291.81;5115209;28;20636;-68
2023/07/18 02:37:37;;;;;;;5.47;5.23;;;;;;;-145.94;69.67;77293.84;5096598;28;20197;-68
2023/07/18 02:40:08;;;;;;;4.53;4.50;;;;;;;-145.94;69.75;77283.66;5115275;28;20239;-68
2023/07/18 02:42:36;;;;;;;5.80;5.40;;;;;;;-145.94;69.78;77279.56;5096394;28;20209;-68
2023/07/18 02:45:03;;;;;;;4.87;4.67;;;;;;;-145.94;70.45;77269.38;5114846;28;20230;-68
2023/07/18 02:47:31;;;;;;;5.33;5.00;;;;;;;-145.94;70.38;77267.34;5114685;28;20157;-68
2023/07/18 02:49:57;;;;;;;4.90;4.50;;;;;;;-145.94;70.11;77261.22;5114539;28;20254;-68
2023/07/18 02:52:24;;;;;;;4.67;4.37;;;;;;;-145.94;70.22;77255.09;5096288;28;20217;-68
2023/07/18 02:54:50;;;;;;;4.30;4.00;;;;;;;-145.94;70.20;77253.06;5114780;28;20188;-68
2023/07/18 02:57:17;;;;;;;5.23;5.13;;;;;;;-145.94;70.55;77255.09;5114644;28;20667;-68
2023/07/18 02:59:44;;;;;;;5.23;4.90;;;;;;;-145.94;70.55;77253.06;5114403;28;20612;-68
2023/07/18 03:02:11;;;;;;;5.40;5.23;;;;;;;-145.94;70.81;77244.91;5114437;28;20201;-68
2023/07/18 03:04:38;;;;;;;5.37;5.17;;;;;;;-145.94;70.46;77251.03;5114308;28;20264;-68
2023/07/18 03:07:05;;;;;;;5.17;5.07;;;;;;;-145.94;70.48;77240.81;5096054;28;20663;-68
2023/07/18 03:09:34;;;;;;;5.43;5.23;;;;;;;-145.94;71.13;77246.94;5095966;28;20189;-68
2023/07/18 03:12:01;;;;;;;5.27;5.17;;;;;;;-145.94;71.00;77246.94;5114067;28;20201;-68
2023/07/18 03:14:29;;;;;;;5.23;5.07;;;;;;;-145.94;71.03;77248.97;5095893;28;20650;-68
2023/07/18 03:16:55;;;;;;;5.10;4.80;;;;;;;-145.94;71.27;77242.88;5095794;28;20193;-68
2023/07/18 03:19:22;;;;;;;5.93;5.63;;;;;;;-145.94;71.11;77248.97;5114104;28;20196;-68
2023/07/18 03:21:49;;;;;;;4.80;4.70;;;;;;;-145.94;71.41;77251.03;5114095;28;20617;-68
2023/07/18 03:24:16;;;;;;;5.30;5.10;;;;;;;-145.94;71.46;77253.06;5114052;28;20552;-68
2023/07/18 03:26:44;;;;;;;5.00;4.77;;;;;;;-145.94;72.12;77251.03;5113981;28;20220;-68
2023/07/18 03:29:10;;;;;;;4.73;4.53;;;;;;;-145.94;71.82;77251.03;5095632;28;20197;-68
2023/07/18 03:31:39;;;;;;;5.57;5.10;;;;;;;-145.94;71.81;77251.03;5114123;28;20258;-68
2023/07/18 03:34:06;;;;;;;5.23;5.03;;;;;;;-145.94;71.97;77242.88;5113837;28;20238;-68
2023/07/18 03:36:33;;;;;;;5.10;4.80;;;;;;;-145.94;72.05;77240.81;5114474;28;20309;-68
2023/07/18 03:38:59;;;;;;;4.83;4.50;;;;;;;-145.94;72.07;77238.78;5095493;28;20202;-68
2023/07/18 03:41:26;;;;;;;6.40;6.13;;;;;;;-145.94;72.23;77234.69;5114011;28;20551;-68
2023/07/18 03:43:53;;;;;;;5.97;5.57;;;;;;;-145.94;72.09;77240.81;5114062;28;20582;-68
2023/07/18 03:46:19;;;;;;;6.33;5.93;;;;;;;-145.94;72.23;77240.81;5114295;28;20200;-68
2023/07/18 03:48:46;;;;;;;5.40;5.20;;;;;;;-145.94;72.42;77244.91;5114071;28;20180;-68
2023/07/18 03:51:14;;;;;;;6.57;6.00;;;;;;;-145.94;72.29;77238.78;5113163;28;20561;-66
2023/07/18 03:53:41;;;;;;;5.73;5.53;;;;;;;-145.94;72.08;77236.75;5113609;28;20188;-66
2023/07/18 03:56:08;;;;;;;5.30;5.00;;;;;;;-145.94;72.43;77242.88;5113583;28;20238;-66
2023/07/18 03:58:35;;;;;;;5.57;5.27;;;;;;;-145.94;72.57;77242.88;5113539;28;20201;-66
2023/07/18 04:01:08;;;;;;;5.17;5.03;;;;;;;-145.94;72.66;77238.78;5114127;28;20185;-67
2023/07/18 04:03:37;;;;;;;5.50;5.30;;;;;;;-145.94;72.15;77232.66;5113891;28;20615;-67
2023/07/18 04:06:03;;;;;;;5.37;4.97;;;;;;;-145.94;72.20;77234.69;5113453;28;20566;-67
2023/07/18 04:08:30;;;;;;;5.67;5.30;;;;;;;-145.94;72.42;77226.53;5113391;28;20200;-67
2023/07/18 04:10:58;;;;;;;5.33;5.23;;;;;;;-145.94;72.44;77226.53;5113803;28;20178;-67
2023/07/18 04:13:25;;;;;;;5.13;4.90;;;;;;;-145.94;72.16;77220.44;5113445;28;20201;-67
2023/07/18 04:15:55;;;;;;;4.80;4.67;;;;;;;-145.94;72.47;77220.44;5113714;28;20659;-67
2023/07/18 04:18:22;;;;;;;5.73;5.10;;;;;;;-145.94;72.37;77214.31;5113386;28;20774;-67
2023/07/18 04:20:49;;;;;;;4.97;4.60;;;;;;;-145.94;72.06;77212.28;5113670;28;20602;-67
2023/07/18 04:23:16;;;;;;;4.23;4.13;;;;;;;-145.94;72.17;77212.28;5113327;28;20254;-67
2023/07/18 04:26:00;;;;;;;5.00;4.90;;;;;;;-145.94;72.17;77214.31;5113891;28;20190;-67
2023/07/18 04:28:28;;;;;;;4.80;4.70;;;;;;;-145.94;71.86;77212.28;5113724;28;20173;-67
2023/07/18 04:30:55;;;;;;;5.80;5.37;;;;;;;-145.94;71.98;77200.03;5113346;28;20189;-67
2023/07/18 04:33:22;;;;;;;5.43;5.20;;;;;;;-145.94;72.08;77200.03;5113220;28;20209;-67
2023/07/18 04:35:48;;;;;;;4.57;4.43;;;;;;;-145.94;72.16;77195.97;5113241;28;20218;-67
2023/07/18 04:38:15;;;;;;;4.50;4.43;;;;;;;-145.94;72.23;77189.84;5113183;28;20235;-67
2023/07/18 04:40:41;;;;;;;5.57;5.20;;;;;;;-145.94;72.38;77187.78;5113229;28;20191;-67
2023/07/18 04:43:08;;;;;;;6.03;5.27;;;;;;;-145.94;72.34;77187.78;5113025;28;20209;-67
2023/07/18 04:45:45;;;;;;;26.60;9.17;;;;;;;-145.94;72.65;77181.69;5113808;28;20182;-67
2023/07/18 04:48:13;;;;;;;8.40;7.53;;;;;;;-145.94;72.40;77169.44;5113457;28;20173;-67
2023/07/18 04:51:00;;;;;;;6.57;6.07;;;;;;;-145.94;72.73;77155.16;5113393;28;20263;-67
2023/07/18 04:53:28;;;;;;;6.23;5.73;;;;;;;-145.94;72.43;77151.09;5113342;28;20196;-67
2023/07/18 04:55:55;;;;;;;6.37;5.97;;;;;;;-145.94;72.38;77144.97;5113377;28;20724;-67
2023/07/18 04:58:25;;;;;;;5.47;4.97;;;;;;;-145.94;72.29;77136.81;5112993;28;20205;-67
2023/07/18 05:00:54;;;;;;;5.77;5.30;;;;;;;-145.94;72.75;77130.69;5113037;28;20188;-67
2023/07/18 05:03:21;;;;;;;7.57;6.97;;;;;;;-145.94;72.34;77106.22;5115172;28;20296;-67
2023/07/18 05:05:48;;;;;;;7.77;7.47;;;;;;;-145.94;72.07;77106.22;5116662;28;20272;-67
2023/07/18 05:08:16;;;;;;;8.33;7.63;;;;;;;-145.94;71.94;77094.00;5116628;28;20188;-67
2023/07/18 05:10:42;;;;;;;8.73;8.00;;;;;;;-145.94;71.51;77089.91;5116760;28;20651;-67
2023/07/18 05:13:10;;;;;;;10.20;9.50;;;;;;;-145.94;71.39;77079.72;5116502;28;20617;-67
2023/07/18 05:15:36;;;;;;;12.83;11.23;;;;;;;-145.94;71.10;77067.47;5116470;28;20185;-67
2023/07/18 05:18:03;;;;;;;15.33;13.83;;;;;;;-145.94;70.75;77049.13;5116362;28;20215;-67
2023/07/18 05:20:30;;;;;;;15.50;14.03;;;;;;;-145.94;70.39;77049.13;5116395;28;20185;-67
2023/07/18 05:22:58;;;;;;;19.43;16.57;;;;;;;-145.94;69.43;77049.13;5098314;28;20695;-66
2023/07/18 05:25:24;;;;;;;14.13;12.83;;;;;;;-145.94;69.34;77026.69;5116297;28;20655;-66
2023/07/18 05:27:51;;;;;;;13.10;11.00;;;;;;;-145.94;68.91;77016.50;5116151;28;20185;-66
2023/07/18 05:30:19;;;;;;;11.97;9.80;;;;;;;-145.94;68.54;77008.34;5116021;28;20536;-66
2023/07/18 05:32:50;;;;;;;8.67;7.87;;;;;;;-145.94;68.12;76994.06;5116064;28;20204;-67
2023/07/18 05:35:16;;;;;;;7.83;6.60;;;;;;;-145.94;66.94;76992.03;5098058;28;20212;-67
2023/07/18 05:37:44;;;;;;;6.27;5.77;;;;;;;-145.94;67.34;76979.78;5115943;28;20205;-67
2023/07/18 05:40:11;;;;;;;6.10;5.70;;;;;;;-145.94;66.75;76969.59;5115973;28;20188;-67
2023/07/18 05:42:39;;;;;;;6.20;5.57;;;;;;;-145.94;66.73;76955.31;5115795;28;20212;-67
2023/07/18 05:45:07;;;;;;;5.57;5.07;;;;;;;-145.94;66.00;76943.09;5115917;28;20250;-66
2023/07/18 05:47:37;;;;;;;5.53;5.07;;;;;;;-145.94;66.11;76930.84;5115830;28;20230;-66
2023/07/18 05:50:05;;;;;;;5.67;5.20;;;;;;;-145.94;65.04;76926.78;5116064;28;20180;-66
2023/07/18 05:52:33;;;;;;;5.43;4.93;;;;;;;-145.94;65.27;76912.50;5115670;28;20205;-67
2023/07/18 05:54:59;;;;;;;4.50;4.40;;;;;;;-145.94;64.82;76900.25;5115684;28;20185;-67
2023/07/18 05:57:26;;;;;;;4.50;4.30;;;;;;;-145.94;64.49;76890.06;5115580;28;20223;-66
2023/07/18 05:59:52;;;;;;;3.97;3.87;;;;;;;-145.94;64.56;76881.91;5115878;28;20185;-66
2023/07/18 06:02:20;;;;;;;4.07;3.90;;;;;;;-145.94;63.99;76873.75;5115461;28;20266;-67
2023/07/18 06:04:47;;;;;;;3.70;3.40;;;;;;;-145.94;63.17;76855.41;5115786;28;20234;-67
2023/07/18 06:07:14;;;;;;;3.80;3.70;;;;;;;-145.94;62.76;76855.41;5116042;28;20189;-67
2023/07/18 06:09:42;;;;;;;4.60;4.40;;;;;;;-145.94;62.54;76847.25;5115400;28;20226;-67
2023/07/18 06:12:09;;;;;;;6.87;4.27;;;;;;;-145.94;61.74;76847.25;5115226;28;20708;-67
2023/07/18 06:14:35;;;;;;;3.20;3.10;;;;;;;-145.94;62.08;76839.09;5115020;28;20182;-66
2023/07/18 06:17:02;;;;;;;5.13;3.33;;;;;;;-145.94;61.68;76822.78;5115216;28;20193;-66
2023/07/18 06:19:28;;;;;;;4.27;3.90;;;;;;;-145.94;61.31;76816.66;5115090;28;20220;-66
2023/07/18 06:21:55;;;;;;;4.13;3.73;;;;;;;-145.94;61.58;76804.41;5115031;28;20211;-67
2023/07/18 06:24:21;;;;;;;3.90;3.50;;;;;;;-145.94;59.82;76800.34;5115386;28;20186;-67
2023/07/18 06:26:51;;;;;;;3.03;3.03;;;;;;;-145.94;59.87;76794.22;5115544;28;20659;-67
2023/07/18 06:29:19;;;;;;;3.43;3.23;;;;;;;-145.94;59.55;76784.03;5115163;28;20260;-67
2023/07/18 06:31:46;;;;;;;3.13;3.03;;;;;;;-145.94;59.17;76777.91;5114931;28;20209;-66
2023/07/18 06:34:13;;;;;;;4.07;3.47;;;;;;;-145.94;59.15;76769.75;5115169;28;20189;-66
2023/07/18 06:36:39;;;;;;;3.27;2.90;;;;;;;-145.94;58.29;76755.47;5114854;28;20177;-66
2023/07/18 06:39:06;;;;;;;3.03;2.93;;;;;;;-145.94;58.89;76745.28;5114718;28;20205;-66
2023/07/18 06:41:33;;;;;;;3.20;3.10;;;;;;;-145.94;58.69;76741.19;5114628;28;20212;-67
2023/07/18 06:44:00;;;;;;;3.20;2.90;;;;;;;-145.94;58.23;76728.97;5097551;28;20609;-66
2023/07/18 06:46:27;;;;;;;3.13;3.13;;;;;;;-145.94;57.73;76716.72;5114657;28;20254;-66
2023/07/18 06:48:54;;;;;;;3.20;3.20;;;;;;;-145.94;57.26;76706.53;5114944;28;20178;-66
2023/07/18 06:51:20;;;;;;;5.47;3.17;;;;;;;-145.94;56.91;76696.34;5115041;28;20647;-67
2023/07/18 06:53:47;;;;;;;3.77;3.07;;;;;;;-145.94;57.02;76700.41;5114602;28;20200;-67
2023/07/18 06:56:13;;;;;;;2.60;2.60;;;;;;;-145.94;57.14;76690.22;5114505;28;20193;-67
2023/07/18 06:58:41;;;;;;;7.30;2.97;;;;;;;-145.94;56.77;76675.94;5114328;28;20197;-66
2023/07/18 07:01:07;;;;;;;2.60;2.50;;;;;;;-145.94;56.41;76663.72;5114423;28;20181;-66
2023/07/18 07:03:34;;;;;;;3.43;2.63;;;;;;;-145.94;56.38;76651.47;5114259;28;20201;-66
2023/07/18 07:06:01;;;;;;;2.60;2.40;;;;;;;-145.94;54.64;76651.47;5114552;28;20185;-66
2023/07/18 07:08:29;;;;;;;2.83;2.37;;;;;;;-145.94;54.43;76647.41;5114321;28;20655;-66
2023/07/18 07:11:06;;;;;;;2.90;2.10;;;;;;;-145.94;54.10;76631.09;5114228;28;20247;-66
2023/07/18 07:13:34;;;;;;;3.57;2.37;;;;;;;-145.94;54.01;76622.94;5114134;28;20610;-67
2023/07/18 07:16:03;;;;;;;2.73;2.63;;;;;;;-145.94;51.82;76606.63;5114002;28;20189;-67
2023/07/18 07:18:30;;;;;;;2.73;2.50;;;;;;;-145.94;51.24;76612.75;5114079;28;20583;-67
2023/07/18 07:20:56;;;;;;;9.07;2.70;;;;;;;-145.94;51.99;76610.69;5114316;28;20549;-67
2023/07/18 07:23:23;;;;;;;2.93;2.73;;;;;;;-145.94;51.23;76608.66;5113974;28;20205;-67
2023/07/18 07:25:49;;;;;;;6.47;2.73;;;;;;;-145.94;51.64;76608.66;5113272;28;20189;-67
2023/07/18 07:28:16;;;;;;;2.67;2.50;;;;;;;-145.94;52.60;76604.59;5113949;28;20587;-67
2023/07/18 07:30:42;;;;;;;2.53;2.43;;;;;;;-145.94;51.67;76598.47;5114039;28;20193;-67
2023/07/18 07:33:09;;;;;;;3.17;3.00;;;;;;;-145.94;51.73;76586.22;5114379;28;20220;-67
2023/07/18 07:35:35;;;;;;;8.20;2.80;;;;;;;-145.94;51.07;76578.06;5095934;28;20536;-67
2023/07/18 07:38:02;;;;;;;5.37;2.33;;;;;;;-145.94;51.82;76569.91;5113720;28;20193;-67
2023/07/18 07:40:28;;;;;;;3.03;2.00;;;;;;;-145.94;52.04;76569.91;5114080;28;20240;-67
2023/07/18 07:42:55;;;;;;;4.83;2.67;;;;;;;-145.94;50.84;76565.84;5113761;28;20209;-66
2023/07/18 07:45:21;;;;;;;2.23;2.13;;;;;;;-145.94;51.69;76555.66;5113759;28;20185;-67
2023/07/18 07:47:48;;;;;;;2.70;2.07;;;;;;;-145.94;51.33;76547.50;5114272;28;20181;-66
2023/07/18 07:50:15;;;;;;;4.30;1.90;;;;;;;-145.94;50.71;76545.44;5113675;28;20550;-66
2023/07/18 07:52:41;;;;;;;2.03;2.03;;;;;;;-145.94;49.95;76535.25;5113607;28;20235;-66
2023/07/18 07:55:10;;;;;;;2.27;2.17;;;;;;;-145.94;49.98;76523.03;5113945;28;20651;-66
2023/07/18 07:57:36;;;;;;;3.40;2.40;;;;;;;-145.94;49.66;76504.66;5113631;28;20547;-66
2023/07/18 08:00:04;;;;;;;1.90;1.80;;;;;;;-145.94;47.99;76492.44;5113533;28;20300;-66
2023/07/18 08:02:31;;;;;;;4.53;1.90;;;;;;;-145.94;48.23;76482.25;5113762;28;20287;-67
2023/07/18 08:04:58;;;;;;;1.40;1.30;;;;;;;-145.94;48.14;76478.16;5113611;28;20185;-66
2023/07/18 08:07:25;;;;;;;4.50;1.83;;;;;;;-145.94;47.90;76463.88;5113523;28;20242;-67
2023/07/18 08:09:51;;;;;;;1.67;1.67;;;;;;;-145.94;48.20;76451.66;5113773;28;20592;-66
2023/07/18 08:12:18;;;;;;;3.40;1.53;;;;;;;-145.94;48.77;76441.47;5113656;28;20213;-66
2023/07/18 08:14:45;;;;;;;2.50;1.27;;;;;;;-145.94;48.59;76429.22;5113505;28;20181;-66
2023/07/18 08:17:11;;;;;;;4.83;1.50;;;;;;;-145.94;47.67;76427.19;5113428;28;20185;-66
2023/07/18 08:19:38;;;;;;;1.40;1.40;;;;;;;-145.94;46.67;76414.94;5113321;28;20250;-67
2023/07/18 08:22:04;;;;;;;2.20;2.07;;;;;;;-145.94;46.48;76406.81;5113316;28;20266;-66
2023/07/18 08:24:31;;;;;;;1.43;1.43;;;;;;;-145.94;46.70;76402.72;5113335;28;20189;-66
2023/07/18 08:26:57;;;;;;;1.53;1.30;;;;;;;-145.94;47.04;76394.56;5113599;28;20238;-66
2023/07/18 08:29:26;;;;;;;2.80;1.47;;;;;;;-145.94;46.80;76396.59;5113398;28;20720;-67
2023/07/18 08:31:54;;;;;;;2.00;1.50;;;;;;;-145.94;47.29;76392.53;5113473;28;20575;-67
2023/07/18 08:34:22;;;;;;;3.33;2.40;;;;;;;-145.94;46.10;76390.50;5113237;28;20186;-66
2023/07/18 08:36:48;;;;;;;1.70;1.60;;;;;;;-145.94;46.83;76384.38;5114804;28;20189;-66
2023/07/18 08:39:15;;;;;;;5.50;1.80;;;;;;;-145.94;46.86;76382.34;5117588;28;20201;-66
2023/07/18 08:41:46;;;;;;;1.53;1.30;;;;;;;-145.94;47.20;76374.19;5117344;28;20217;-66
2023/07/18 08:44:13;;;;;;;1.60;1.60;;;;;;;-145.94;46.13;76366.03;5117652;28;20178;-66
2023/07/18 08:46:42;;;;;;;2.03;1.93;;;;;;;-145.94;46.97;76363.97;5116942;28;20192;-66
2023/07/18 08:49:14;;;;;;;5.73;1.50;;;;;;;-145.94;47.42;76355.81;5117022;28;20189;-66
2023/07/18 08:51:44;;;;;;;1.53;1.53;;;;;;;-145.94;46.14;76355.81;5116898;28;20876;-66
2023/07/18 08:54:12;;;;;;;1.60;1.60;;;;;;;-145.94;44.52;76353.78;5116914;28;20189;-66
2023/07/18 08:56:42;;;;;;;7.37;2.30;;;;;;;-145.94;44.80;76343.59;5117086;28;20709;-66
2023/07/18 08:59:09;;;;;;;1.73;1.63;;;;;;;-145.94;44.81;76335.44;5116693;28;20196;-67
2023/07/18 09:01:45;;;;;;;2.63;1.43;;;;;;;-145.94;44.04;76325.25;5117193;28;20240;-67
2023/07/18 09:04:12;;;;;;;1.70;1.70;;;;;;;-145.94;43.78;76321.16;5117337;28;20557;-66
2023/07/18 09:06:49;;;;;;;8.17;2.10;;;;;;;-145.94;45.01;76313.00;5116712;28;20196;-66
2023/07/18 09:09:17;;;;;;;2.20;1.50;;;;;;;-145.94;44.22;76315.03;5116909;28;20187;-66
2023/07/18 09:11:57;;;;;;;1.50;1.20;;;;;;;-145.94;44.00;76310.97;5116505;28;20577;-67
2023/07/18 09:14:30;;;;;;;1.63;1.53;;;;;;;-145.94;43.91;76306.88;5116577;28;20178;-66
2023/07/18 09:16:59;;;;;;;3.90;1.80;;;;;;;-145.94;44.64;76298.72;5116789;28;20190;-66
2023/07/18 09:19:42;;;;;;;1.83;1.80;;;;;;;-145.94;44.49;76278.34;5116343;28;20300;-66
2023/07/18 09:22:17;;;;;;;2.50;2.13;;;;;;;-145.94;44.42;76257.97;5116615;28;20201;-66
2023/07/18 09:24:43;;;;;;;4.07;1.67;;;;;;;-145.94;44.39;76253.88;5116346;28;20227;-67
2023/07/18 09:27:16;;;;;;;1.30;1.30;;;;;;;-145.94;43.75;76239.59;5116854;28;20184;-66
2023/07/18 09:29:45;;;;;;;1.87;1.70;;;;;;;-145.94;42.26;76231.44;5116231;28;20198;-66
2023/07/18 09:32:21;;;;;;;1.17;1.17;;;;;;;-145.94;41.72;76225.34;5116056;28;20276;-66
2023/07/18 09:34:55;;;;;;;1.50;1.40;;;;;;;-145.94;42.09;76229.41;5116118;28;20185;-66
2023/07/18 09:37:21;;;;;;;1.20;1.20;;;;;;;-145.94;41.97;76227.38;5116438;28;20170;-66
2023/07/18 09:39:49;;;;;;;4.67;1.40;;;;;;;-145.94;41.93;76219.22;5115964;28;20212;-66
2023/07/18 09:42:20;;;;;;;1.73;1.57;;;;;;;-145.94;42.37;76221.25;5116044;28;20281;-66
2023/07/18 09:44:49;;;;;;;2.03;2.00;;;;;;;-145.94;42.41;76215.13;5116218;28;20182;-66
2023/07/18 09:47:19;;;;;;;7.43;1.43;;;;;;;-145.94;42.38;76227.38;5115863;28;20218;-66
2023/07/18 09:49:46;;;;;;;4.37;1.40;;;;;;;-145.94;42.63;76231.44;5115151;28;20181;-66
2023/07/18 09:52:14;;;;;;;1.53;1.30;;;;;;;-145.94;40.92;76245.72;5115641;28;20209;-66
2023/07/18 09:54:43;;;;;;;1.90;1.80;;;;;;;-145.94;40.10;76245.72;5115775;28;20558;-66
2023/07/18 09:57:10;;;;;;;1.40;1.40;;;;;;;-145.94;40.13;76235.53;5115693;28;20181;-66
2023/07/18 09:59:37;;;;;;;1.70;1.60;;;;;;;-145.94;41.41;76227.38;5115570;28;20205;-66
2023/07/18 10:02:06;;;;;;;3.03;1.40;;;;;;;-145.94;40.80;76221.25;5115554;28;20246;-66
2023/07/18 10:04:36;;;;;;;1.67;1.67;;;;;;;-145.94;41.38;76225.34;5115615;28;20189;-66
2023/07/18 10:07:03;;;;;;;1.97;1.40;;;;;;;-145.94;41.25;76227.38;5116093;28;20203;-66
2023/07/18 10:09:31;;;;;;;1.80;1.70;;;;;;;-145.94;41.58;76231.44;5115475;28;20185;-66
2023/07/18 10:11:58;;;;;;;3.13;2.27;;;;;;;-145.94;42.37;76207.00;5115228;28;20241;-66
2023/07/18 10:14:28;;;;;;;1.40;1.40;;;;;;;-145.94;40.09;76182.53;5115554;28;20215;-66
2023/07/18 10:16:58;;;;;;;2.83;1.60;;;;;;;-145.94;40.84;76178.44;5115596;28;20230;-67
2023/07/18 10:19:25;;;;;;;2.47;1.80;;;;;;;-145.94;41.65;76164.16;5115695;28;20205;-65
2023/07/18 10:21:52;;;;;;;4.03;1.60;;;;;;;-145.94;40.62;76158.06;5115320;28;20212;-66
2023/07/18 10:24:19;;;;;;;2.93;1.77;;;;;;;-145.94;39.70;76170.28;5115692;28;20215;-66
2023/07/18 10:26:48;;;;;;;1.50;1.50;;;;;;;-145.94;40.02;76176.41;5115160;28;20262;-66
2023/07/18 10:29:15;;;;;;;3.47;2.00;;;;;;;-145.94;39.90;76190.69;5114909;28;20239;-66
2023/07/18 10:31:41;;;;;;;11.33;1.70;;;;;;;-145.94;40.57;76186.59;5115193;28;20258;-66
2023/07/18 10:34:18;;;;;;;4.00;2.33;;;;;;;-145.94;41.05;76188.63;5115126;28;20227;-66
2023/07/18 10:37:01;;;;;;;1.43;1.43;;;;;;;-145.94;40.53;76184.56;5115499;28;20230;-66
2023/07/18 10:39:43;;;;;;;2.17;2.07;;;;;;;-145.94;40.78;76194.75;5114695;28;20213;-66
2023/07/18 10:42:20;;;;;;;3.37;2.13;;;;;;;-145.94;41.94;76192.72;5114917;28;20295;-66
2023/07/18 10:44:48;;;;;;;2.30;2.03;;;;;;;-145.94;43.05;76186.59;5115046;28;20177;-65
2023/07/18 10:47:16;;;;;;;1.90;1.80;;;;;;;-145.94;41.92;76190.69;5114731;28;20297;-65
2023/07/18 10:49:44;;;;;;;2.00;1.90;;;;;;;-145.94;42.75;76180.47;5115185;28;20209;-65
2023/07/18 10:52:12;;;;;;;6.10;4.20;;;;;;;-145.94;41.17;76182.53;5114541;28;20228;-66
2023/07/18 10:54:51;;;;;;;2.80;2.00;;;;;;;-145.94;40.56;76170.28;5114953;28;20173;-65
2023/07/18 10:57:24;;;;;;;4.97;2.20;;;;;;;-145.94;40.38;76164.16;5114571;28;20230;-66
2023/07/18 10:59:51;;;;;;;1.83;1.83;;;;;;;-145.94;41.55;76158.06;5113755;28;20744;-66
2023/07/18 11:02:19;;;;;;;2.40;1.90;;;;;;;-145.94;41.09;76166.22;5114666;28;20209;-66
2023/07/18 11:04:47;;;;;;;7.50;2.20;;;;;;;-145.94;41.06;76156.00;5114610;28;20200;-66
2023/07/18 11:07:13;;;;;;;3.63;1.60;;;;;;;-145.94;40.88;76158.06;5114312;28;20659;-66
2023/07/18 11:09:41;;;;;;;2.37;1.80;;;;;;;-145.94;41.32;76156.00;5114290;28;20170;-66
2023/07/18 11:12:16;;;;;;;2.83;1.90;;;;;;;-145.94;41.63;76147.84;5114198;28;20205;-66
2023/07/18 11:14:43;;;;;;;1.93;1.70;;;;;;;-145.94;42.56;76127.47;5114214;28;20173;-66
2023/07/18 11:17:13;;;;;;;1.80;1.80;;;;;;;-145.94;41.83;76123.41;5114446;28;20181;-65
2023/07/18 11:19:40;;;;;;;1.50;1.50;;;;;;;-145.94;41.25;76119.31;5114398;28;20208;-65